Time;durP1;ratioP1;P1;durP2;ratioP2;P2;SDS_P1;SDS_P2;PMS_P1;PMS_P2;Temp;Humidity;BMP_temperature;BMP_pressure;BME280_temperature;BME280_humidity;BME280_pressure;Samples;Min_cycle;Max_cycle;Signal;HPM_P1;HPM_P2
2021/06/06 00:00:22;;;;;;;12.45;10.18;;;;;;;10.29;83.44;98345.91;1736327;82;21029;-77
2021/06/06 00:02:51;;;;;;;15.40;10.72;;;;;;;10.23;83.37;98336.15;1736089;82;21349;-77
2021/06/06 00:05:17;;;;;;;15.18;11.18;;;;;;;10.23;83.37;98336.15;1736216;82;20986;-77
2021/06/06 00:07:43;;;;;;;18.05;11.63;;;;;;;10.15;83.09;98337.46;1736271;81;21065;-77
2021/06/06 00:10:10;;;;;;;24.57;11.73;;;;;;;10.11;82.61;98341.80;1736465;81;21223;-77
2021/06/06 00:12:36;;;;;;;18.30;13.28;;;;;;;10.04;83.88;98342.05;1735996;82;21084;-77
2021/06/06 00:15:07;;;;;;;17.87;12.50;;;;;;;10.02;83.18;98346.13;1736686;82;21069;-77
2021/06/06 00:17:33;;;;;;;21.87;13.38;;;;;;;9.97;83.30;98344.20;1736043;82;20927;-77
2021/06/06 00:19:59;;;;;;;17.50;12.45;;;;;;;9.89;84.64;98344.18;1736351;82;21047;-77
2021/06/06 00:22:25;;;;;;;16.77;11.78;;;;;;;9.87;84.81;98342.29;1715855;82;21157;-77
2021/06/06 00:24:51;;;;;;;19.27;12.20;;;;;;;9.89;83.91;98342.02;1736709;82;21589;-77
2021/06/06 00:27:18;;;;;;;17.62;10.20;;;;;;;9.92;83.63;98348.27;1736356;82;20990;-77
2021/06/06 00:29:44;;;;;;;15.25;11.05;;;;;;;9.92;82.78;98345.56;1736001;82;21085;-77
2021/06/06 00:32:10;;;;;;;16.25;10.63;;;;;;;9.88;82.99;98346.62;1715329;82;20918;-77
2021/06/06 00:34:36;;;;;;;14.50;10.95;;;;;;;9.87;84.80;98346.35;1736244;82;20952;-77
2021/06/06 00:37:02;;;;;;;13.78;10.13;;;;;;;9.87;84.53;98349.05;1736231;82;21009;-77
2021/06/06 00:39:28;;;;;;;14.03;10.65;;;;;;;9.89;84.42;98352.30;1736180;82;20967;-77
2021/06/06 00:41:54;;;;;;;14.70;10.43;;;;;;;9.89;84.81;98349.59;1736444;82;21033;-77
2021/06/06 00:44:20;;;;;;;16.87;10.10;;;;;;;9.93;85.29;98344.48;1736095;81;21005;-77
2021/06/06 00:46:46;;;;;;;11.95;9.58;;;;;;;9.94;85.37;98354.22;1742088;81;21065;-77
2021/06/06 00:49:12;;;;;;;12.28;9.75;;;;;;;9.99;84.68;98355.57;1750212;82;20966;-77
2021/06/06 00:51:55;;;;;;;12.70;8.98;;;;;;;10.02;83.66;98349.64;1750459;82;20889;-77
2021/06/06 00:54:31;;;;;;;15.90;11.83;;;;;;;10.02;83.58;98354.24;1748845;82;20926;-77
2021/06/06 00:57:14;;;;;;;19.52;14.15;;;;;;;9.98;83.82;98352.59;1749850;82;21517;-77
2021/06/06 00:59:44;;;;;;;17.85;12.35;;;;;;;9.88;84.10;98357.98;1723103;82;21780;-77
2021/06/06 01:02:10;;;;;;;13.88;11.73;;;;;;;9.78;83.92;98351.20;1750017;82;20986;-77
2021/06/06 01:04:37;;;;;;;15.60;10.55;;;;;;;9.73;84.35;98360.10;1750116;82;21025;-77
2021/06/06 01:07:03;;;;;;;15.32;10.95;;;;;;;9.71;82.85;98352.80;1750347;82;21001;-77
2021/06/06 01:09:29;;;;;;;15.20;10.85;;;;;;;9.64;83.90;98346.81;1750092;82;20985;-77
2021/06/06 01:12:16;;;;;;;18.90;10.48;;;;;;;9.57;84.39;98351.66;1750460;82;21317;-77
2021/06/06 01:15:00;;;;;;;14.73;11.53;;;;;;;9.58;83.79;98354.66;1718161;82;20918;-76
2021/06/06 01:18:02;;;;;;;14.18;10.80;;;;;;;9.53;84.36;98350.03;1740752;82;20962;-77
2021/06/06 01:20:51;;;;;;;12.90;10.05;;;;;;;9.53;84.41;98351.38;1750356;82;20978;-78
2021/06/06 01:23:29;;;;;;;16.80;9.85;;;;;;;9.55;83.83;98345.16;1750150;82;21445;-77
2021/06/06 01:26:03;;;;;;;13.98;9.90;;;;;;;9.53;84.09;98346.52;1750468;82;21399;-77
2021/06/06 01:28:38;;;;;;;14.15;11.03;;;;;;;9.58;85.56;98346.55;1750042;82;20970;-76
2021/06/06 01:31:04;;;;;;;15.20;10.93;;;;;;;9.63;86.90;98358.72;1750375;81;20941;-76
2021/06/06 01:33:41;;;;;;;18.17;11.33;;;;;;;9.69;86.20;98359.02;1750250;82;20909;-76
2021/06/06 01:36:12;;;;;;;14.50;12.00;;;;;;;9.77;86.57;98362.56;1746880;82;21072;-76
2021/06/06 01:39:00;;;;;;;13.48;9.90;;;;;;;9.76;86.98;98355.53;1750299;82;21378;-77
2021/06/06 01:41:36;;;;;;;13.58;9.85;;;;;;;9.76;86.58;98360.13;1702204;82;20970;-77
2021/06/06 01:44:05;;;;;;;16.62;10.70;;;;;;;9.71;85.12;98359.56;1750241;82;21125;-76
2021/06/06 01:46:39;;;;;;;19.40;11.73;;;;;;;9.57;85.77;98360.61;1750218;81;21418;-76
2021/06/06 01:49:06;;;;;;;13.65;9.43;;;;;;;9.54;86.96;98360.31;1750278;82;20954;-77
2021/06/06 01:51:44;;;;;;;15.25;10.90;;;;;;;9.59;84.95;98361.16;1750400;82;21158;-77
2021/06/06 01:54:14;;;;;;;14.78;10.68;;;;;;;9.43;87.42;98357.30;1722388;82;21033;-77
2021/06/06 01:56:41;;;;;;;14.98;10.95;;;;;;;9.48;85.19;98358.11;1722978;82;20973;-77
2021/06/06 01:59:15;;;;;;;14.95;9.88;;;;;;;9.45;84.91;98360.00;1722294;82;21025;-77
2021/06/06 02:01:42;;;;;;;16.45;10.00;;;;;;;9.48;84.60;98360.00;1749686;82;21465;-78
2021/06/06 02:04:08;;;;;;;14.40;9.38;;;;;;;9.43;84.43;98360.00;1750016;82;21109;-78
2021/06/06 02:06:45;;;;;;;12.65;9.53;;;;;;;9.31;84.93;98356.14;1750431;82;21021;-78
2021/06/06 02:09:16;;;;;;;15.13;10.15;;;;;;;9.28;85.45;98364.25;1750073;81;21400;-78
2021/06/06 02:11:53;;;;;;;14.87;9.43;;;;;;;9.27;86.24;98365.33;1748765;82;20923;-78
2021/06/06 02:14:27;;;;;;;13.38;9.53;;;;;;;9.35;85.60;98365.91;1749982;82;20981;-76
2021/06/06 02:16:56;;;;;;;16.65;9.88;;;;;;;9.39;85.47;98363.75;1723172;82;21058;-77
2021/06/06 02:19:24;;;;;;;;;;;;;;;9.39;86.50;98358.34;1752545;82;21026;-78
2021/06/06 02:21:53;;;;;;;17.12;10.68;;;;;;;9.43;88.47;98358.11;1750462;82;20130;-77
2021/06/06 02:24:19;;;;;;;15.35;11.12;;;;;;;9.46;87.87;98363.52;1721829;82;21394;-77
2021/06/06 02:26:57;;;;;;;14.18;9.48;;;;;;;9.40;88.11;98361.34;1750703;81;21040;-77
2021/06/06 02:29:34;;;;;;;13.83;10.03;;;;;;;9.40;86.17;98361.34;1750057;81;21105;-77
2021/06/06 02:32:11;;;;;;;17.98;11.50;;;;;;;9.36;87.08;98360.77;1750250;82;21500;-77
2021/06/06 02:34:54;;;;;;;13.20;9.35;;;;;;;9.33;86.81;98361.58;1750225;82;21028;-75
2021/06/06 02:37:28;;;;;;;12.80;8.83;;;;;;;9.30;87.01;98365.33;1750283;81;20966;-77
2021/06/06 02:40:00;;;;;;;12.07;8.95;;;;;;;9.27;85.56;98360.46;1723046;82;20958;-77
2021/06/06 02:42:30;;;;;;;13.75;9.45;;;;;;;9.07;86.46;98355.77;1749889;82;21922;-77
2021/06/06 02:45:03;;;;;;;18.30;10.53;;;;;;;9.05;88.15;98357.35;1749914;81;20953;-77
2021/06/06 02:47:33;;;;;;;13.28;8.83;;;;;;;9.03;88.33;98362.22;1743762;81;20983;-77
2021/06/06 02:50:02;;;;;;;14.03;10.95;;;;;;;9.04;87.48;98365.19;1736246;82;20962;-77
2021/06/06 02:52:44;;;;;;;23.05;10.58;;;;;;;9.07;89.13;98362.52;1736416;82;21030;-77
2021/06/06 02:55:18;;;;;;;18.17;11.60;;;;;;;9.18;89.04;98366.09;1736470;82;21105;-77
2021/06/06 02:57:52;;;;;;;14.87;11.43;;;;;;;9.25;90.36;98362.08;1735228;82;21049;-77
2021/06/06 03:00:31;;;;;;;13.53;10.98;;;;;;;9.35;89.18;98361.85;1736487;82;20994;-77
2021/06/06 03:03:11;;;;;;;11.55;9.28;;;;;;;9.42;88.14;98361.08;1736181;82;21356;-77
2021/06/06 03:05:37;;;;;;;12.73;9.00;;;;;;;9.44;87.61;98370.55;1672813;85;21023;-77
2021/06/06 03:08:06;;;;;;;12.53;9.90;;;;;;;9.40;87.01;98369.47;1680929;84;21308;-77
2021/06/06 03:10:33;;;;;;;11.75;8.98;;;;;;;9.43;86.93;98366.77;1681177;84;21417;-77
2021/06/06 03:13:03;;;;;;;12.47;9.15;;;;;;;9.41;86.58;98368.92;1696278;84;21088;-77
2021/06/06 03:15:34;;;;;;;12.98;9.38;;;;;;;9.34;87.55;98373.21;1696539;84;21000;-77
2021/06/06 03:18:00;;;;;;;13.55;9.75;;;;;;;9.38;86.75;98375.66;1696226;84;21079;-77
2021/06/06 03:20:43;;;;;;;16.15;12.00;;;;;;;9.32;86.58;98376.72;1696311;84;21130;-77
2021/06/06 03:23:11;;;;;;;13.03;10.72;;;;;;;9.34;85.73;98371.86;1643766;84;20964;-77
2021/06/06 03:25:50;;;;;;;14.10;10.40;;;;;;;9.29;85.74;98373.98;1622223;84;21088;-77
2021/06/06 03:28:19;;;;;;;15.15;10.20;;;;;;;9.25;86.65;98366.14;1696254;84;21063;-76
2021/06/06 03:30:48;;;;;;;17.50;11.18;;;;;;;9.31;87.49;98377.77;1696658;84;21052;-76
2021/06/06 03:33:17;;;;;;;16.00;10.35;;;;;;;9.39;86.84;98376.46;1644653;84;21774;-76
2021/06/06 03:35:43;;;;;;;13.30;9.65;;;;;;;9.42;86.83;98378.66;1696373;84;20997;-77
2021/06/06 03:38:11;;;;;;;14.28;10.48;;;;;;;9.40;87.03;98373.52;1696235;84;21004;-77
2021/06/06 03:40:41;;;;;;;14.28;10.20;;;;;;;9.43;87.09;98372.17;1667695;84;21025;-77
2021/06/06 03:43:10;;;;;;;13.18;9.03;;;;;;;9.50;86.76;98378.97;1695996;84;21087;-78
2021/06/06 03:45:36;;;;;;;17.10;10.63;;;;;;;9.53;86.52;98377.08;1696178;84;27211;-78
2021/06/06 03:48:03;;;;;;;13.30;9.88;;;;;;;9.51;86.27;98371.13;1707610;83;21046;-78
2021/06/06 03:50:30;;;;;;;14.03;9.95;;;;;;;9.53;87.12;98374.38;1722121;83;21413;-78
2021/06/06 03:52:56;;;;;;;14.83;11.05;;;;;;;9.58;86.67;98369.54;1693547;84;21038;-78
2021/06/06 03:55:22;;;;;;;13.60;10.90;;;;;;;9.58;87.24;98370.89;1667605;84;21554;-78
2021/06/06 03:57:49;;;;;;;19.00;10.78;;;;;;;9.65;86.68;98371.44;1721993;83;21706;-78
2021/06/06 04:00:21;;;;;;;12.47;9.73;;;;;;;9.74;85.94;98375.80;1692676;84;20979;-78
2021/06/06 04:02:47;;;;;;;11.65;9.33;;;;;;;9.73;85.75;98372.81;1693772;83;21004;-78
2021/06/06 04:05:14;;;;;;;12.37;9.93;;;;;;;9.73;86.04;98374.98;1692771;84;21019;-78
2021/06/06 04:07:40;;;;;;;13.70;10.78;;;;;;;9.78;86.47;98378.27;1687666;85;21065;-78
2021/06/06 04:10:07;;;;;;;13.22;9.68;;;;;;;9.83;86.05;98376.40;1703365;84;21391;-78
2021/06/06 04:12:33;;;;;;;17.10;11.78;;;;;;;9.86;86.14;98373.15;1703508;84;21501;-78
2021/06/06 04:14:59;;;;;;;14.33;10.93;;;;;;;9.81;86.17;98374.47;1703355;84;20877;-78
2021/06/06 04:17:25;;;;;;;14.05;10.18;;;;;;;9.79;86.97;98379.89;1677280;84;20864;-78
2021/06/06 04:19:53;;;;;;;11.60;8.68;;;;;;;9.88;86.47;98384.52;1703407;84;20944;-78
2021/06/06 04:22:19;;;;;;;15.55;11.43;;;;;;;9.92;86.12;98386.17;1692036;84;22287;-78
2021/06/06 04:24:46;;;;;;;17.15;11.30;;;;;;;9.95;86.09;98381.56;1721969;83;20929;-78
2021/06/06 04:27:12;;;;;;;19.67;11.28;;;;;;;9.96;85.90;98383.73;1693285;84;21034;-78
2021/06/06 04:29:38;;;;;;;15.55;11.05;;;;;;;9.98;86.07;98382.91;1721818;83;20947;-78
2021/06/06 04:32:04;;;;;;;13.60;11.40;;;;;;;10.03;85.94;98381.05;1722226;83;20856;-78
2021/06/06 04:34:31;;;;;;;16.27;12.30;;;;;;;10.02;85.78;98384.84;1666971;84;21225;-78
2021/06/06 04:36:58;;;;;;;16.05;12.47;;;;;;;10.12;86.00;98385.39;1721887;83;21047;-78
2021/06/06 04:39:24;;;;;;;14.55;10.88;;;;;;;10.29;86.23;98386.00;1695051;83;21561;-78
2021/06/06 04:41:50;;;;;;;17.25;11.50;;;;;;;10.49;85.47;98387.91;1693095;84;21527;-78
2021/06/06 04:44:16;;;;;;;13.93;9.95;;;;;;;10.50;84.95;98394.14;1721953;83;21452;-78
2021/06/06 04:46:42;;;;;;;13.75;10.78;;;;;;;10.67;84.72;98385.20;1722077;83;21736;-78
2021/06/06 04:49:08;;;;;;;13.45;9.63;;;;;;;10.69;84.44;98381.16;1654438;85;20993;-78
2021/06/06 04:51:34;;;;;;;13.00;9.98;;;;;;;10.84;84.24;98387.63;1715261;82;21037;-78
2021/06/06 04:54:00;;;;;;;17.48;10.70;;;;;;;10.91;84.03;98378.14;1744318;82;20962;-78
2021/06/06 04:56:27;;;;;;;16.45;10.58;;;;;;;10.83;84.20;98379.23;1744730;82;21080;-78
2021/06/06 04:58:55;;;;;;;14.55;10.50;;;;;;;10.86;84.22;98382.23;1744302;82;21800;-78
2021/06/06 05:01:21;;;;;;;12.80;10.23;;;;;;;10.86;84.49;98386.84;1744544;82;21009;-78
2021/06/06 05:03:47;;;;;;;12.03;10.00;;;;;;;10.98;85.27;98384.65;1744466;81;20974;-78
2021/06/06 05:06:13;;;;;;;19.70;11.93;;;;;;;11.30;84.54;98387.03;1715125;82;20867;-78
2021/06/06 05:08:39;;;;;;;16.27;11.57;;;;;;;11.59;84.41;98380.42;1744376;82;20958;-78
2021/06/06 05:11:06;;;;;;;12.53;9.33;;;;;;;11.83;84.09;98380.63;1744602;82;21430;-78
2021/06/06 05:13:32;;;;;;;11.70;9.70;;;;;;;12.13;83.53;98381.00;1691533;82;20922;-78
2021/06/06 05:15:58;;;;;;;12.40;10.55;;;;;;;12.46;81.82;98388.13;1744518;82;21005;-78
2021/06/06 05:18:24;;;;;;;13.08;11.20;;;;;;;12.53;82.37;98384.00;1744462;82;20961;-78
2021/06/06 05:20:51;;;;;;;14.13;11.40;;;;;;;12.72;80.74;98381.39;1744840;82;21466;-78
2021/06/06 05:23:18;;;;;;;14.15;10.43;;;;;;;12.70;80.98;98377.61;1744419;81;21013;-78
2021/06/06 05:25:44;;;;;;;14.60;11.50;;;;;;;12.79;80.91;98373.73;1744410;82;20962;-78
2021/06/06 05:28:14;;;;;;;12.75;10.25;;;;;;;12.88;81.28;98378.00;1744510;82;21446;-78
2021/06/06 05:30:41;;;;;;;11.03;8.83;;;;;;;13.13;80.54;98376.41;1744347;82;21044;-78
2021/06/06 05:33:07;;;;;;;15.15;10.75;;;;;;;13.25;80.21;98375.51;1744439;82;21008;-77
2021/06/06 05:35:33;;;;;;;12.10;10.40;;;;;;;13.51;80.00;98374.67;1744388;81;21238;-77
2021/06/06 05:38:00;;;;;;;12.78;9.18;;;;;;;13.73;78.69;98374.67;1744349;82;20961;-77
2021/06/06 05:40:27;;;;;;;11.05;9.85;;;;;;;13.91;78.79;98363.00;1744219;82;21018;-78
2021/06/06 05:42:53;;;;;;;11.08;9.98;;;;;;;13.97;77.39;98370.01;1744745;82;20927;-78
2021/06/06 05:45:20;;;;;;;13.50;9.95;;;;;;;14.15;77.84;98368.95;1714764;82;20842;-77
2021/06/06 05:47:46;;;;;;;11.85;10.65;;;;;;;14.27;78.38;98367.42;1718219;81;21140;-77
2021/06/06 05:50:14;;;;;;;11.88;9.00;;;;;;;14.56;78.02;98370.00;1757855;81;20913;-77
2021/06/06 05:52:40;;;;;;;10.03;8.95;;;;;;;14.80;77.93;98371.80;1758287;81;20986;-77
2021/06/06 05:55:08;;;;;;;14.68;8.65;;;;;;;15.04;76.84;98367.55;1757911;81;20869;-77
2021/06/06 05:57:35;;;;;;;10.95;8.93;;;;;;;15.22;76.35;98369.42;1758081;81;21005;-77
2021/06/06 06:00:05;;;;;;;12.82;10.08;;;;;;;15.42;75.39;98369.59;1730251;81;20945;-77
2021/06/06 06:02:30;;;;;;;14.07;10.20;;;;;;;15.57;75.24;98371.22;1758222;81;20965;-77
2021/06/06 06:04:56;;;;;;;12.13;9.95;;;;;;;15.83;73.26;98369.61;1757968;81;20968;-77
2021/06/06 06:07:22;;;;;;;15.90;8.83;;;;;;;15.76;73.37;98367.28;1758243;81;20866;-77
2021/06/06 06:09:48;;;;;;;11.38;8.78;;;;;;;15.85;72.56;98363.28;1758054;81;20842;-77
2021/06/06 06:12:14;;;;;;;13.13;9.00;;;;;;;15.97;72.64;98364.11;1758460;81;21514;-77
2021/06/06 06:14:40;;;;;;;11.30;10.05;;;;;;;16.02;71.25;98362.09;1757806;81;20873;-77
2021/06/06 06:17:06;;;;;;;9.73;8.73;;;;;;;15.93;72.01;98364.48;1758147;81;20889;-77
2021/06/06 06:19:32;;;;;;;10.65;8.78;;;;;;;16.06;72.00;98359.00;1729934;81;21381;-77
2021/06/06 06:21:58;;;;;;;10.98;8.50;;;;;;;16.30;72.01;98364.75;1758107;81;21052;-77
2021/06/06 06:24:24;;;;;;;13.15;9.20;;;;;;;16.52;71.94;98363.97;1757856;81;21043;-77
2021/06/06 06:26:51;;;;;;;12.82;8.08;;;;;;;16.78;71.94;98367.73;1758410;81;20881;-77
2021/06/06 06:29:17;;;;;;;12.13;8.48;;;;;;;17.00;71.87;98364.72;1706605;81;20980;-77
2021/06/06 06:31:44;;;;;;;10.50;7.45;;;;;;;17.30;69.98;98360.38;1758433;81;21008;-77
2021/06/06 06:34:10;;;;;;;9.73;8.45;;;;;;;17.36;70.05;98362.67;1758027;81;20838;-77
2021/06/06 06:36:36;;;;;;;11.33;8.28;;;;;;;17.55;70.10;98362.98;1758534;81;21662;-77
2021/06/06 06:39:02;;;;;;;8.70;7.67;;;;;;;17.81;70.49;98361.73;1757937;81;20838;-77
2021/06/06 06:41:30;;;;;;;10.45;7.60;;;;;;;18.07;68.87;98359.84;1758115;81;21024;-77
2021/06/06 06:43:56;;;;;;;9.10;7.72;;;;;;;18.21;68.69;98357.78;1729733;81;21603;-77
2021/06/06 06:46:22;;;;;;;10.70;9.03;;;;;;;18.30;67.66;98359.95;1758140;81;21441;-77
2021/06/06 06:48:48;;;;;;;8.73;7.83;;;;;;;18.56;68.34;98358.59;1721970;82;21986;-77
2021/06/06 06:51:14;;;;;;;9.25;7.60;;;;;;;18.82;67.65;98352.30;1736286;82;21021;-77
2021/06/06 06:53:41;;;;;;;8.65;7.22;;;;;;;19.04;67.08;98356.19;1736153;82;20946;-77
2021/06/06 06:56:07;;;;;;;8.88;7.15;;;;;;;19.15;65.70;98361.59;1715171;82;21010;-78
2021/06/06 06:58:33;;;;;;;8.30;7.22;;;;;;;19.22;65.72;98357.52;1736255;82;21297;-77
2021/06/06 07:00:59;;;;;;;8.93;7.42;;;;;;;19.34;64.42;98354.33;1715218;82;21120;-77
2021/06/06 07:03:29;;;;;;;8.28;7.15;;;;;;;19.47;64.17;98355.23;1715371;82;20975;-77
2021/06/06 07:05:56;;;;;;;8.73;7.42;;;;;;;19.62;63.57;98356.67;1736029;82;20904;-77
2021/06/06 07:08:26;;;;;;;6.33;5.70;;;;;;;19.73;60.86;98359.27;1736144;82;20918;-77
2021/06/06 07:10:52;;;;;;;7.83;6.20;;;;;;;19.68;61.13;98356.73;1735453;82;20967;-77
2021/06/06 07:13:18;;;;;;;7.90;6.42;;;;;;;19.80;61.16;98357.38;1736247;82;21302;-77
2021/06/06 07:15:45;;;;;;;9.38;6.17;;;;;;;20.00;61.52;98349.76;1736322;82;21341;-77
2021/06/06 07:18:14;;;;;;;7.95;6.53;;;;;;;20.55;61.45;98350.90;1736161;82;20946;-77
2021/06/06 07:20:40;;;;;;;6.78;5.92;;;;;;;20.98;60.46;98346.92;1736059;82;21435;-77
2021/06/06 07:23:09;;;;;;;5.95;5.30;;;;;;;21.05;59.03;98341.67;1691689;82;20998;-77
2021/06/06 07:25:35;;;;;;;8.48;6.45;;;;;;;21.19;59.43;98344.67;1736159;82;21905;-77
2021/06/06 07:28:02;;;;;;;6.35;5.60;;;;;;;21.20;54.93;98340.22;1736095;82;20943;-77
2021/06/06 07:30:35;;;;;;;6.95;5.35;;;;;;;21.38;58.58;98340.27;1715418;82;20967;-77
2021/06/06 07:33:01;;;;;;;6.47;5.08;;;;;;;21.59;58.06;98338.78;1716388;82;21337;-77
2021/06/06 07:35:29;;;;;;;6.20;4.47;;;;;;;22.12;56.41;98334.16;1736119;82;20999;-77
2021/06/06 07:37:56;;;;;;;7.40;5.70;;;;;;;22.86;54.69;98336.72;1736399;82;21149;-77
2021/06/06 07:40:23;;;;;;;5.85;4.22;;;;;;;23.21;54.33;98337.66;1736126;82;21002;-77
2021/06/06 07:42:49;;;;;;;5.37;4.87;;;;;;;23.52;53.14;98333.32;1736475;82;21351;-77
2021/06/06 07:45:16;;;;;;;6.10;5.22;;;;;;;23.79;49.94;98331.05;1736171;82;20964;-78
2021/06/06 07:47:42;;;;;;;7.17;5.22;;;;;;;24.44;52.93;98324.98;1736673;82;21231;-78
2021/06/06 07:50:11;;;;;;;5.00;4.50;;;;;;;24.83;52.27;98321.63;1748927;81;21116;-77
2021/06/06 07:52:37;;;;;;;5.55;5.05;;;;;;;24.74;52.59;98326.59;1722475;82;20989;-77
2021/06/06 07:55:06;;;;;;;8.43;5.37;;;;;;;25.00;49.77;98321.16;1750218;82;20906;-78
2021/06/06 07:57:32;;;;;;;6.28;4.75;;;;;;;25.13;47.75;98323.23;1750321;82;20946;-78
2021/06/06 07:59:58;;;;;;;6.15;4.40;;;;;;;25.48;48.63;98326.41;1750183;81;20969;-78
2021/06/06 08:02:25;;;;;;;6.72;4.55;;;;;;;25.76;48.88;98325.50;1750623;82;21313;-77
2021/06/06 08:04:51;;;;;;;5.50;4.37;;;;;;;25.29;49.25;98323.08;1750115;82;21367;-77
2021/06/06 08:07:17;;;;;;;4.60;4.03;;;;;;;24.51;48.71;98319.59;1750294;82;21091;-77
2021/06/06 08:09:43;;;;;;;6.78;5.30;;;;;;;23.83;47.85;98325.58;1750054;82;20878;-77
2021/06/06 08:12:09;;;;;;;6.97;5.47;;;;;;;23.97;49.33;98322.36;1750417;82;20874;-78
2021/06/06 08:14:35;;;;;;;16.67;9.88;;;;;;;24.15;47.30;98326.32;1749956;82;21157;-78
2021/06/06 08:17:02;;;;;;;14.87;11.00;;;;;;;24.69;46.01;98320.75;1750404;82;20862;-78
2021/06/06 08:19:28;;;;;;;8.95;5.75;;;;;;;24.26;47.36;98319.04;1722743;82;20974;-78
2021/06/06 08:21:54;;;;;;;8.33;4.90;;;;;;;24.07;47.85;98322.59;1750608;82;21112;-77
2021/06/06 08:24:20;;;;;;;6.87;4.62;;;;;;;23.72;47.31;98317.04;1750384;82;20914;-77
2021/06/06 08:26:46;;;;;;;9.18;4.83;;;;;;;22.96;48.41;98327.91;1750499;82;22007;-77
2021/06/06 08:29:11;;;;;;;7.80;4.90;;;;;;;22.86;49.25;98333.95;1722718;82;20889;-77
2021/06/06 08:31:39;;;;;;;6.17;5.20;;;;;;;22.79;48.99;98327.05;1750146;82;20965;-77
2021/06/06 08:34:06;;;;;;;6.53;4.58;;;;;;;24.12;46.78;98320.94;1750187;82;20985;-77
2021/06/06 08:36:42;;;;;;;7.10;4.30;;;;;;;25.18;43.96;98320.12;1750148;81;20958;-77
2021/06/06 08:39:22;;;;;;;6.97;4.53;;;;;;;26.35;41.59;98325.95;1750189;82;21062;-77
2021/06/06 08:42:18;;;;;;;5.35;3.92;;;;;;;27.83;39.46;98320.98;1749963;82;21390;-78
2021/06/06 08:44:49;;;;;;;5.62;4.17;;;;;;;27.96;36.48;98333.42;1750087;82;21045;-77
2021/06/06 08:47:18;;;;;;;5.12;4.35;;;;;;;28.40;37.25;98328.92;1746144;82;20973;-78
2021/06/06 08:49:47;;;;;;;3.80;3.50;;;;;;;27.35;35.15;98332.11;1741285;81;21120;-78
2021/06/06 08:52:46;;;;;;;5.75;4.40;;;;;;;25.59;37.85;98326.78;1736501;82;21716;-78
2021/06/06 08:55:29;;;;;;;4.33;3.70;;;;;;;26.88;38.77;98325.82;1736661;81;20922;-77
2021/06/06 08:58:25;;;;;;;5.30;3.90;;;;;;;26.64;38.75;98323.76;1736420;82;21380;-77
2021/06/06 09:00:55;;;;;;;6.50;4.15;;;;;;;25.49;38.49;98328.00;1736110;82;20927;-77
2021/06/06 09:03:25;;;;;;;5.20;4.45;;;;;;;24.78;40.23;98330.81;1736152;82;20962;-76
2021/06/06 09:05:59;;;;;;;7.05;5.08;;;;;;;24.61;41.64;98333.45;1736321;82;21408;-76
2021/06/06 09:08:25;;;;;;;6.12;4.45;;;;;;;25.02;42.34;98327.16;1722590;82;21395;-77
2021/06/06 09:10:54;;;;;;;5.50;4.05;;;;;;;26.22;40.70;98321.78;1736213;82;20954;-77
2021/06/06 09:13:23;;;;;;;5.65;4.35;;;;;;;25.51;41.61;98325.65;1736280;82;21022;-77
2021/06/06 09:15:51;;;;;;;6.40;4.17;;;;;;;25.61;41.05;98326.41;1715632;82;20981;-77
2021/06/06 09:18:28;;;;;;;5.55;4.40;;;;;;;26.52;39.54;98312.91;1736397;81;20970;-77
2021/06/06 09:20:55;;;;;;;4.42;4.03;;;;;;;27.78;36.81;98319.38;1736193;82;20943;-78
2021/06/06 09:23:29;;;;;;;4.15;3.75;;;;;;;27.80;36.07;98317.59;1736275;82;20967;-78
2021/06/06 09:26:15;;;;;;;4.50;3.80;;;;;;;28.57;33.50;98310.89;1736164;82;21027;-78
2021/06/06 09:28:44;;;;;;;3.90;3.50;;;;;;;29.09;32.37;98307.28;1735402;82;20962;-77
2021/06/06 09:31:18;;;;;;;9.15;3.27;;;;;;;30.15;32.39;98311.28;1735535;82;21454;-77
2021/06/06 09:33:53;;;;;;;5.87;3.58;;;;;;;29.34;32.54;98310.70;1736238;82;20982;-78
2021/06/06 09:36:30;;;;;;;5.22;3.52;;;;;;;28.62;32.77;98313.28;1736186;82;20950;-78
2021/06/06 09:39:04;;;;;;;5.05;3.10;;;;;;;30.42;31.66;98310.20;1736507;82;20923;-77
2021/06/06 09:41:37;;;;;;;5.65;3.12;;;;;;;31.16;28.26;98313.86;1736362;82;20943;-78
2021/06/06 09:44:18;;;;;;;4.22;3.37;;;;;;;29.28;30.47;98310.30;1736173;81;20996;-78
2021/06/06 09:46:54;;;;;;;3.55;3.17;;;;;;;28.33;32.17;98306.00;1736125;82;20982;-78
2021/06/06 09:49:36;;;;;;;5.05;4.00;;;;;;;29.41;29.11;98305.93;1740704;82;21033;-78
2021/06/06 09:52:16;;;;;;;5.10;3.75;;;;;;;30.61;28.66;98301.36;1750063;82;21426;-78
2021/06/06 09:54:47;;;;;;;5.78;3.25;;;;;;;31.09;27.95;98302.70;1750532;82;20922;-77
2021/06/06 09:57:33;;;;;;;4.15;3.37;;;;;;;31.65;27.46;98304.93;1749758;82;22022;-78
2021/06/06 10:00:23;;;;;;;6.33;3.47;;;;;;;31.62;27.35;98301.53;1722603;82;21033;-78
2021/06/06 10:02:52;;;;;;;5.42;3.25;;;;;;;31.57;26.15;98302.79;1750278;82;20978;-77
2021/06/06 10:05:32;;;;;;;7.90;2.92;;;;;;;31.89;26.16;98303.14;1750272;82;20974;-78
2021/06/06 10:08:21;;;;;;;6.35;3.75;;;;;;;29.69;29.53;98302.96;1749907;82;20926;-78
2021/06/06 10:10:52;;;;;;;4.53;3.42;;;;;;;30.42;27.47;98306.61;1750233;81;21068;-77
2021/06/06 10:13:27;;;;;;;4.35;3.95;;;;;;;32.42;27.04;98297.59;1748932;82;21370;-78
2021/06/06 10:16:16;;;;;;;4.20;3.47;;;;;;;32.32;26.58;98308.33;1750408;82;21014;-78
2021/06/06 10:19:02;;;;;;;4.20;3.20;;;;;;;32.18;26.80;98301.63;1750293;81;21096;-78
2021/06/06 10:21:32;;;;;;;5.83;3.37;;;;;;;32.52;25.82;98299.46;1748507;82;21406;-77
2021/06/06 10:24:06;;;;;;;6.28;3.25;;;;;;;33.91;24.41;98297.42;1750058;82;21886;-77
2021/06/06 10:26:45;;;;;;;4.08;3.60;;;;;;;34.11;23.73;98286.23;1750084;82;20914;-78
2021/06/06 10:29:41;;;;;;;3.47;3.10;;;;;;;33.38;24.04;98290.68;1750349;82;20922;-77
2021/06/06 10:32:25;;;;;;;3.22;2.87;;;;;;;33.36;24.75;98291.69;1750066;81;20997;-78
2021/06/06 10:35:05;;;;;;;3.62;3.20;;;;;;;34.91;22.62;98282.81;1722754;82;21026;-76
2021/06/06 10:37:31;;;;;;;4.85;2.83;;;;;;;35.05;22.92;98276.25;1750495;82;21042;-78
2021/06/06 10:40:02;;;;;;;3.80;3.22;;;;;;;34.26;23.71;98292.35;1750290;81;21064;-78
2021/06/06 10:42:39;;;;;;;5.87;3.77;;;;;;;33.55;23.20;98283.19;1750246;82;20974;-78
2021/06/06 10:45:29;;;;;;;5.90;3.37;;;;;;;32.32;25.10;98283.89;1750419;82;20978;-77
2021/06/06 10:48:12;;;;;;;4.30;3.27;;;;;;;30.43;27.73;98288.06;1750440;82;20941;-78
2021/06/06 10:50:41;;;;;;;3.83;3.22;;;;;;;33.27;24.51;98285.21;1739865;82;21407;-77
2021/06/06 10:53:27;;;;;;;4.17;3.27;;;;;;;34.02;24.34;98282.58;1736250;82;20970;-78
2021/06/06 10:56:14;;;;;;;5.40;2.85;;;;;;;34.83;23.53;98281.35;1736099;82;20966;-78
2021/06/06 10:59:03;;;;;;;5.15;3.55;;;;;;;32.52;24.75;98290.44;1732757;82;21014;-77
2021/06/06 11:01:48;;;;;;;6.12;3.25;;;;;;;29.55;28.17;98287.60;1736107;82;20943;-77
2021/06/06 11:04:18;;;;;;;6.63;3.10;;;;;;;31.27;26.12;98285.22;1718816;82;21707;-77
2021/06/06 11:06:47;;;;;;;3.35;2.75;;;;;;;32.02;23.41;98282.38;1736081;81;20931;-77
2021/06/06 11:09:30;;;;;;;4.25;3.08;;;;;;;31.32;25.12;98277.80;1736071;82;20919;-77
2021/06/06 11:12:12;;;;;;;2.95;2.60;;;;;;;29.21;26.97;98284.57;1736115;82;20951;-79
2021/06/06 11:14:49;;;;;;;5.78;4.72;;;;;;;30.54;25.71;98279.02;1736065;82;21412;-76
2021/06/06 11:17:37;;;;;;;3.67;2.95;;;;;;;31.87;23.96;98277.53;1736095;82;21780;-78
2021/06/06 11:20:29;;;;;;;3.58;2.77;;;;;;;33.58;22.68;98271.87;1736214;81;20999;-77
2021/06/06 11:22:56;;;;;;;5.12;3.25;;;;;;;30.75;25.14;98279.53;1736657;82;20927;-77
2021/06/06 11:25:30;;;;;;;5.50;3.33;;;;;;;29.45;27.85;98274.62;1736276;82;21023;-77
2021/06/06 11:28:00;;;;;;;3.62;3.08;;;;;;;29.88;27.32;98266.83;1736299;82;21013;-78
2021/06/06 11:30:32;;;;;;;3.47;3.00;;;;;;;31.44;24.42;98278.68;1736196;82;21088;-77
2021/06/06 11:33:02;;;;;;;2.70;2.27;;;;;;;33.00;23.54;98264.17;1736167;82;21037;-77
2021/06/06 11:35:40;;;;;;;2.67;2.47;;;;;;;34.32;21.45;98266.73;1736275;82;20974;-78
2021/06/06 11:38:18;;;;;;;;;;;;;;;33.81;20.58;98262.65;1739042;82;20962;-77
2021/06/06 11:40:52;;;;;;;3.50;2.87;;;;;;;33.06;21.94;98258.25;1736382;81;20152;-77
2021/06/06 11:43:30;;;;;;;4.90;3.00;;;;;;;33.63;21.65;98264.38;1733202;82;21082;-78
2021/06/06 11:46:15;;;;;;;;;;;;;;;34.47;20.61;98255.41;1739171;82;20951;-77